sensor_id;sensor_type;location;lat;lon;timestamp;temperature;humidity
15143;DHT22;7672;50.834;6.286;2022-12-18T00:01:26;-3.80;99.90
15143;DHT22;7672;50.834;6.286;2022-12-18T00:03:54;-3.80;99.90
15143;DHT22;7672;50.834;6.286;2022-12-18T00:06:22;-3.90;99.90
15143;DHT22;7672;50.834;6.286;2022-12-18T00:08:51;-3.80;99.90
15143;DHT22;7672;50.834;6.286;2022-12-18T00:11:21;-3.90;99.90
15143;DHT22;7672;50.834;6.286;2022-12-18T00:13:50;-3.90;99.90
15143;DHT22;7672;50.834;6.286;2022-12-18T00:16:20;-3.90;99.90
15143;DHT22;7672;50.834;6.286;2022-12-18T00:18:50;-3.90;99.90
15143;DHT22;7672;50.834;6.286;2022-12-18T00:21:21;-3.90;99.90
15143;DHT22;7672;50.834;6.286;2022-12-18T00:23:49;-3.90;99.90
15143;DHT22;7672;50.834;6.286;2022-12-18T00:26:19;-3.90;99.90
15143;DHT22;7672;50.834;6.286;2022-12-18T00:28:49;-3.90;99.90
15143;DHT22;7672;50.834;6.286;2022-12-18T00:31:19;-3.90;99.90
15143;DHT22;7672;50.834;6.286;2022-12-18T00:33:48;-3.90;99.90
15143;DHT22;7672;50.834;6.286;2022-12-18T00:36:28;-3.90;99.90
15143;DHT22;7672;50.834;6.286;2022-12-18T00:38:58;-3.90;99.90
15143;DHT22;7672;50.834;6.286;2022-12-18T00:41:26;-3.90;99.90
15143;DHT22;7672;50.834;6.286;2022-12-18T00:44:14;-4.00;99.90
15143;DHT22;7672;50.834;6.286;2022-12-18T00:46:43;-3.90;99.90
15143;DHT22;7672;50.834;6.286;2022-12-18T00:49:11;-3.90;99.90
15143;DHT22;7672;50.834;6.286;2022-12-18T00:51:37;-4.00;99.90
15143;DHT22;7672;50.834;6.286;2022-12-18T00:54:05;-4.00;99.90
15143;DHT22;7672;50.834;6.286;2022-12-18T00:56:32;-4.00;99.90
15143;DHT22;7672;50.834;6.286;2022-12-18T00:58:58;-4.00;99.90
15143;DHT22;7672;50.834;6.286;2022-12-18T01:01:25;-4.00;99.90
15143;DHT22;7672;50.834;6.286;2022-12-18T01:03:52;-4.00;99.90
15143;DHT22;7672;50.834;6.286;2022-12-18T01:06:19;-4.00;99.90
15143;DHT22;7672;50.834;6.286;2022-12-18T01:08:46;-4.00;99.90
15143;DHT22;7672;50.834;6.286;2022-12-18T01:11:16;-4.00;99.90
15143;DHT22;7672;50.834;6.286;2022-12-18T01:13:44;-4.00;99.90
15143;DHT22;7672;50.834;6.286;2022-12-18T01:16:12;-4.00;99.90
15143;DHT22;7672;50.834;6.286;2022-12-18T01:18:40;-4.00;99.90
15143;DHT22;7672;50.834;6.286;2022-12-18T01:21:09;-4.00;99.90
15143;DHT22;7672;50.834;6.286;2022-12-18T01:23:38;-4.10;99.90
15143;DHT22;7672;50.834;6.286;2022-12-18T01:26:11;-4.00;99.90
15143;DHT22;7672;50.834;6.286;2022-12-18T01:28:42;-4.10;99.90
15143;DHT22;7672;50.834;6.286;2022-12-18T01:31:12;-4.00;99.90
15143;DHT22;7672;50.834;6.286;2022-12-18T01:33:40;-4.10;99.90
15143;DHT22;7672;50.834;6.286;2022-12-18T01:36:08;-4.10;99.90
15143;DHT22;7672;50.834;6.286;2022-12-18T01:38:40;-4.10;99.90
15143;DHT22;7672;50.834;6.286;2022-12-18T01:41:08;-4.10;99.90
15143;DHT22;7672;50.834;6.286;2022-12-18T01:43:45;-4.10;99.90
15143;DHT22;7672;50.834;6.286;2022-12-18T01:46:22;-4.00;99.90
15143;DHT22;7672;50.834;6.286;2022-12-18T01:48:54;-4.00;99.90
15143;DHT22;7672;50.834;6.286;2022-12-18T01:51:24;-4.00;99.90
15143;DHT22;7672;50.834;6.286;2022-12-18T01:53:56;-4.00;99.90
15143;DHT22;7672;50.834;6.286;2022-12-18T01:56:24;-4.00;99.90
15143;DHT22;7672;50.834;6.286;2022-12-18T01:58:56;-3.90;99.90
15143;DHT22;7672;50.834;6.286;2022-12-18T02:01:29;-3.90;99.90
15143;DHT22;7672;50.834;6.286;2022-12-18T02:09:51;-3.80;99.90
15143;DHT22;7672;50.834;6.286;2022-12-18T02:12:25;-3.80;99.90
15143;DHT22;7672;50.834;6.286;2022-12-18T02:15:24;-3.80;99.90
15143;DHT22;7672;50.834;6.286;2022-12-18T02:24:48;-3.70;99.90
15143;DHT22;7672;50.834;6.286;2022-12-18T02:27:19;-3.80;99.90
15143;DHT22;7672;50.834;6.286;2022-12-18T02:29:54;-3.80;99.90
15143;DHT22;7672;50.834;6.286;2022-12-18T02:32:27;-3.80;99.90
15143;DHT22;7672;50.834;6.286;2022-12-18T02:34:58;-3.80;99.90
15143;DHT22;7672;50.834;6.286;2022-12-18T02:37:27;-3.80;99.90
15143;DHT22;7672;50.834;6.286;2022-12-18T02:39:57;-3.80;99.90
15143;DHT22;7672;50.834;6.286;2022-12-18T02:42:26;-3.80;99.90
15143;DHT22;7672;50.834;6.286;2022-12-18T02:44:54;-3.80;99.90
15143;DHT22;7672;50.834;6.286;2022-12-18T02:47:24;-3.80;99.90
15143;DHT22;7672;50.834;6.286;2022-12-18T02:50:18;-3.90;99.90
15143;DHT22;7672;50.834;6.286;2022-12-18T02:53:17;-3.90;99.90
15143;DHT22;7672;50.834;6.286;2022-12-18T02:56:07;-3.90;99.90
15143;DHT22;7672;50.834;6.286;2022-12-18T02:59:02;-3.90;99.90
15143;DHT22;7672;50.834;6.286;2022-12-18T03:01:35;-4.00;99.90
15143;DHT22;7672;50.834;6.286;2022-12-18T03:06:56;-4.10;99.90
15143;DHT22;7672;50.834;6.286;2022-12-18T03:09:34;-4.10;99.90
15143;DHT22;7672;50.834;6.286;2022-12-18T03:12:11;-4.20;99.90
15143;DHT22;7672;50.834;6.286;2022-12-18T03:15:17;-4.20;99.90
15143;DHT22;7672;50.834;6.286;2022-12-18T03:17:55;-4.30;99.90
15143;DHT22;7672;50.834;6.286;2022-12-18T03:20:27;-4.30;99.90
15143;DHT22;7672;50.834;6.286;2022-12-18T03:23:07;-4.40;99.90
15143;DHT22;7672;50.834;6.286;2022-12-18T03:25:40;-4.50;99.90
15143;DHT22;7672;50.834;6.286;2022-12-18T03:28:14;-4.40;99.90
15143;DHT22;7672;50.834;6.286;2022-12-18T03:30:46;-4.50;99.90
15143;DHT22;7672;50.834;6.286;2022-12-18T03:33:27;-4.60;99.90
15143;DHT22;7672;50.834;6.286;2022-12-18T03:35:58;-4.60;99.90
15143;DHT22;7672;50.834;6.286;2022-12-18T03:38:25;-4.60;99.90
15143;DHT22;7672;50.834;6.286;2022-12-18T03:41:15;-4.60;99.90
15143;DHT22;7672;50.834;6.286;2022-12-18T03:44:44;-4.70;99.90
15143;DHT22;7672;50.834;6.286;2022-12-18T03:47:27;-4.60;99.90
15143;DHT22;7672;50.834;6.286;2022-12-18T03:52:42;-4.60;99.90
15143;DHT22;7672;50.834;6.286;2022-12-18T03:55:18;-4.60;99.90
15143;DHT22;7672;50.834;6.286;2022-12-18T03:57:48;-4.60;99.90
15143;DHT22;7672;50.834;6.286;2022-12-18T04:00:18;-4.60;99.90
15143;DHT22;7672;50.834;6.286;2022-12-18T04:02:54;-4.60;99.90
15143;DHT22;7672;50.834;6.286;2022-12-18T04:05:24;-4.60;99.90
15143;DHT22;7672;50.834;6.286;2022-12-18T04:07:54;-4.60;99.90
15143;DHT22;7672;50.834;6.286;2022-12-18T04:10:22;-4.50;99.90
15143;DHT22;7672;50.834;6.286;2022-12-18T04:12:49;-4.50;99.90
15143;DHT22;7672;50.834;6.286;2022-12-18T04:15:16;-4.50;99.90
15143;DHT22;7672;50.834;6.286;2022-12-18T04:17:48;-4.50;99.90
15143;DHT22;7672;50.834;6.286;2022-12-18T04:20:16;-4.60;99.90
15143;DHT22;7672;50.834;6.286;2022-12-18T04:22:43;-4.60;99.90
15143;DHT22;7672;50.834;6.286;2022-12-18T04:25:11;-4.60;99.90
15143;DHT22;7672;50.834;6.286;2022-12-18T04:27:38;-4.60;99.90
15143;DHT22;7672;50.834;6.286;2022-12-18T04:30:05;-4.60;99.90
15143;DHT22;7672;50.834;6.286;2022-12-18T04:32:33;-4.60;99.90
15143;DHT22;7672;50.834;6.286;2022-12-18T04:35:01;-4.50;99.90
15143;DHT22;7672;50.834;6.286;2022-12-18T04:37:30;-4.60;99.90
15143;DHT22;7672;50.834;6.286;2022-12-18T04:39:57;-4.60;99.90
15143;DHT22;7672;50.834;6.286;2022-12-18T04:42:23;-4.60;99.90
15143;DHT22;7672;50.834;6.286;2022-12-18T04:44:50;-4.60;99.90
15143;DHT22;7672;50.834;6.286;2022-12-18T04:47:17;-4.60;99.90
15143;DHT22;7672;50.834;6.286;2022-12-18T04:49:44;-4.60;99.90
15143;DHT22;7672;50.834;6.286;2022-12-18T04:52:10;-4.70;99.90
15143;DHT22;7672;50.834;6.286;2022-12-18T04:54:37;-4.70;99.90
15143;DHT22;7672;50.834;6.286;2022-12-18T04:57:04;-4.60;99.90
15143;DHT22;7672;50.834;6.286;2022-12-18T04:59:31;-4.60;99.90
15143;DHT22;7672;50.834;6.286;2022-12-18T05:01:57;-4.70;99.90
15143;DHT22;7672;50.834;6.286;2022-12-18T05:04:24;-4.70;99.90
15143;DHT22;7672;50.834;6.286;2022-12-18T05:06:51;-4.70;99.90
15143;DHT22;7672;50.834;6.286;2022-12-18T05:09:18;-4.70;99.90
15143;DHT22;7672;50.834;6.286;2022-12-18T05:11:45;-4.70;99.90
15143;DHT22;7672;50.834;6.286;2022-12-18T05:14:13;-4.70;99.90
15143;DHT22;7672;50.834;6.286;2022-12-18T05:16:40;-4.60;99.90
15143;DHT22;7672;50.834;6.286;2022-12-18T05:19:06;-4.60;99.90
15143;DHT22;7672;50.834;6.286;2022-12-18T05:21:33;-4.60;99.90
15143;DHT22;7672;50.834;6.286;2022-12-18T05:24:00;-4.60;99.90
15143;DHT22;7672;50.834;6.286;2022-12-18T05:26:27;-4.60;99.90
15143;DHT22;7672;50.834;6.286;2022-12-18T05:28:53;-4.60;99.90
15143;DHT22;7672;50.834;6.286;2022-12-18T05:31:20;-4.60;99.90
15143;DHT22;7672;50.834;6.286;2022-12-18T05:33:47;-4.50;99.90
15143;DHT22;7672;50.834;6.286;2022-12-18T05:36:14;-4.60;99.90
15143;DHT22;7672;50.834;6.286;2022-12-18T05:38:41;-4.60;99.90
15143;DHT22;7672;50.834;6.286;2022-12-18T05:41:08;-4.60;99.90
15143;DHT22;7672;50.834;6.286;2022-12-18T05:43:37;-4.60;99.90
15143;DHT22;7672;50.834;6.286;2022-12-18T05:46:08;-4.60;99.90
15143;DHT22;7672;50.834;6.286;2022-12-18T05:48:38;-4.60;99.90
15143;DHT22;7672;50.834;6.286;2022-12-18T05:51:07;-4.50;99.90
15143;DHT22;7672;50.834;6.286;2022-12-18T05:53:36;-4.50;99.90
15143;DHT22;7672;50.834;6.286;2022-12-18T05:56:06;-4.40;99.90
15143;DHT22;7672;50.834;6.286;2022-12-18T05:58:37;-4.40;99.90
15143;DHT22;7672;50.834;6.286;2022-12-18T06:01:11;-4.30;99.90
15143;DHT22;7672;50.834;6.286;2022-12-18T06:03:46;-4.30;99.90
15143;DHT22;7672;50.834;6.286;2022-12-18T06:06:22;-4.30;99.90
15143;DHT22;7672;50.834;6.286;2022-12-18T06:08:52;-4.30;99.90
15143;DHT22;7672;50.834;6.286;2022-12-18T06:11:22;-4.30;99.90
15143;DHT22;7672;50.834;6.286;2022-12-18T06:13:56;-4.30;99.90
15143;DHT22;7672;50.834;6.286;2022-12-18T06:16:29;-4.40;99.90
15143;DHT22;7672;50.834;6.286;2022-12-18T06:19:02;-4.40;99.90
15143;DHT22;7672;50.834;6.286;2022-12-18T06:21:31;-4.40;99.90
15143;DHT22;7672;50.834;6.286;2022-12-18T06:24:00;-4.50;99.90
15143;DHT22;7672;50.834;6.286;2022-12-18T06:26:52;-4.50;99.90
15143;DHT22;7672;50.834;6.286;2022-12-18T06:29:22;-4.60;99.90
15143;DHT22;7672;50.834;6.286;2022-12-18T06:31:49;-4.60;99.90
15143;DHT22;7672;50.834;6.286;2022-12-18T06:34:15;-4.60;99.90
15143;DHT22;7672;50.834;6.286;2022-12-18T06:36:45;-4.70;99.90
15143;DHT22;7672;50.834;6.286;2022-12-18T06:39:12;-4.70;99.90
15143;DHT22;7672;50.834;6.286;2022-12-18T06:41:38;-4.70;99.90
15143;DHT22;7672;50.834;6.286;2022-12-18T06:44:05;-4.70;99.90
15143;DHT22;7672;50.834;6.286;2022-12-18T06:46:33;-4.80;99.90
15143;DHT22;7672;50.834;6.286;2022-12-18T06:49:00;-4.70;99.90
15143;DHT22;7672;50.834;6.286;2022-12-18T06:51:28;-4.70;99.90
15143;DHT22;7672;50.834;6.286;2022-12-18T06:53:55;-4.80;99.90
15143;DHT22;7672;50.834;6.286;2022-12-18T06:56:22;-4.60;99.90
15143;DHT22;7672;50.834;6.286;2022-12-18T06:58:48;-4.70;99.90
15143;DHT22;7672;50.834;6.286;2022-12-18T07:01:15;-4.60;99.90
15143;DHT22;7672;50.834;6.286;2022-12-18T07:03:45;-4.60;99.90
15143;DHT22;7672;50.834;6.286;2022-12-18T07:06:18;-4.60;99.90
15143;DHT22;7672;50.834;6.286;2022-12-18T07:08:47;-4.60;99.90
15143;DHT22;7672;50.834;6.286;2022-12-18T07:11:15;-4.50;99.90
15143;DHT22;7672;50.834;6.286;2022-12-18T07:13:43;-4.50;99.90
15143;DHT22;7672;50.834;6.286;2022-12-18T07:44:22;-4.60;99.90
15143;DHT22;7672;50.834;6.286;2022-12-18T08:22:57;-4.30;99.90
15143;DHT22;7672;50.834;6.286;2022-12-18T08:25:50;-4.40;99.90
15143;DHT22;7672;50.834;6.286;2022-12-18T08:28:50;-4.20;99.90
15143;DHT22;7672;50.834;6.286;2022-12-18T08:31:30;-4.10;99.90
15143;DHT22;7672;50.834;6.286;2022-12-18T08:34:09;-3.40;99.90
15143;DHT22;7672;50.834;6.286;2022-12-18T08:36:53;-3.70;99.90
15143;DHT22;7672;50.834;6.286;2022-12-18T08:39:31;-3.80;99.90
15143;DHT22;7672;50.834;6.286;2022-12-18T08:42:42;-4.10;99.90
15143;DHT22;7672;50.834;6.286;2022-12-18T08:46:36;-3.50;99.90
15143;DHT22;7672;50.834;6.286;2022-12-18T09:50:41;0.70;99.90
15143;DHT22;7672;50.834;6.286;2022-12-18T09:57:20;0.00;99.90
15143;DHT22;7672;50.834;6.286;2022-12-18T10:20:09;0.60;99.90
15143;DHT22;7672;50.834;6.286;2022-12-18T10:23:08;0.80;99.90
15143;DHT22;7672;50.834;6.286;2022-12-18T10:26:07;0.90;99.90
15143;DHT22;7672;50.834;6.286;2022-12-18T10:28:37;1.00;99.90
15143;DHT22;7672;50.834;6.286;2022-12-18T10:31:16;1.10;99.90
15143;DHT22;7672;50.834;6.286;2022-12-18T10:33:50;1.20;99.90
15143;DHT22;7672;50.834;6.286;2022-12-18T10:36:17;1.30;99.90
15143;DHT22;7672;50.834;6.286;2022-12-18T10:38:44;1.40;99.90
15143;DHT22;7672;50.834;6.286;2022-12-18T10:46:50;1.50;99.90
15143;DHT22;7672;50.834;6.286;2022-12-18T10:49:27;1.50;99.90
15143;DHT22;7672;50.834;6.286;2022-12-18T10:54:55;1.40;99.90
15143;DHT22;7672;50.834;6.286;2022-12-18T10:57:35;1.50;99.90
15143;DHT22;7672;50.834;6.286;2022-12-18T11:00:27;1.50;99.90
15143;DHT22;7672;50.834;6.286;2022-12-18T11:02:57;1.50;99.90
15143;DHT22;7672;50.834;6.286;2022-12-18T11:05:30;1.50;99.90
15143;DHT22;7672;50.834;6.286;2022-12-18T11:08:00;1.50;99.90
15143;DHT22;7672;50.834;6.286;2022-12-18T11:10:32;1.60;99.90
15143;DHT22;7672;50.834;6.286;2022-12-18T11:13:18;1.60;99.90
15143;DHT22;7672;50.834;6.286;2022-12-18T11:15:47;1.50;99.90
15143;DHT22;7672;50.834;6.286;2022-12-18T11:21:05;1.50;99.90
15143;DHT22;7672;50.834;6.286;2022-12-18T11:23:35;1.50;99.90
15143;DHT22;7672;50.834;6.286;2022-12-18T11:26:04;1.40;99.90
15143;DHT22;7672;50.834;6.286;2022-12-18T11:28:36;1.40;99.90
15143;DHT22;7672;50.834;6.286;2022-12-18T11:31:26;1.40;99.90
15143;DHT22;7672;50.834;6.286;2022-12-18T11:33:59;1.40;99.90
15143;DHT22;7672;50.834;6.286;2022-12-18T11:36:49;1.40;99.90
15143;DHT22;7672;50.834;6.286;2022-12-18T11:39:40;1.40;99.90
15143;DHT22;7672;50.834;6.286;2022-12-18T11:42:17;1.30;99.90
15143;DHT22;7672;50.834;6.286;2022-12-18T11:44:55;1.30;99.90
15143;DHT22;7672;50.834;6.286;2022-12-18T11:53:17;0.90;99.90
15143;DHT22;7672;50.834;6.286;2022-12-18T11:58:49;1.30;99.90
15143;DHT22;7672;50.834;6.286;2022-12-18T12:08:06;1.30;99.90
15143;DHT22;7672;50.834;6.286;2022-12-18T12:16:44;1.40;99.90
15143;DHT22;7672;50.834;6.286;2022-12-18T12:22:13;1.40;99.90
15143;DHT22;7672;50.834;6.286;2022-12-18T12:29:06;1.40;99.90
15143;DHT22;7672;50.834;6.286;2022-12-18T12:32:01;1.50;99.90
15143;DHT22;7672;50.834;6.286;2022-12-18T12:38:07;1.50;99.90
15143;DHT22;7672;50.834;6.286;2022-12-18T12:40:46;1.50;99.90
15143;DHT22;7672;50.834;6.286;2022-12-18T12:46:19;1.60;99.90
15143;DHT22;7672;50.834;6.286;2022-12-18T12:48:55;1.60;99.90
15143;DHT22;7672;50.834;6.286;2022-12-18T12:51:32;1.60;99.90
15143;DHT22;7672;50.834;6.286;2022-12-18T12:54:04;1.70;99.90
15143;DHT22;7672;50.834;6.286;2022-12-18T12:56:43;1.70;99.90
15143;DHT22;7672;50.834;6.286;2022-12-18T13:05:50;1.70;99.90
15143;DHT22;7672;50.834;6.286;2022-12-18T13:08:29;1.70;99.90
15143;DHT22;7672;50.834;6.286;2022-12-18T13:11:02;1.80;99.90
15143;DHT22;7672;50.834;6.286;2022-12-18T13:13:52;1.80;99.90
15143;DHT22;7672;50.834;6.286;2022-12-18T13:16:25;1.80;99.90
15143;DHT22;7672;50.834;6.286;2022-12-18T13:18:57;1.80;99.90
15143;DHT22;7672;50.834;6.286;2022-12-18T13:21:29;1.80;99.90
15143;DHT22;7672;50.834;6.286;2022-12-18T13:24:27;1.80;99.90
15143;DHT22;7672;50.834;6.286;2022-12-18T13:26:57;1.80;99.90
15143;DHT22;7672;50.834;6.286;2022-12-18T13:32:25;1.80;99.90
15143;DHT22;7672;50.834;6.286;2022-12-18T13:37:54;1.80;99.90
15143;DHT22;7672;50.834;6.286;2022-12-18T13:43:29;1.70;99.90
15143;DHT22;7672;50.834;6.286;2022-12-18T13:48:59;1.60;99.90
15143;DHT22;7672;50.834;6.286;2022-12-18T13:51:34;1.50;99.90
15143;DHT22;7672;50.834;6.286;2022-12-18T13:54:28;1.50;99.90
15143;DHT22;7672;50.834;6.286;2022-12-18T13:56:59;1.50;99.90
15143;DHT22;7672;50.834;6.286;2022-12-18T13:59:39;1.50;99.90
15143;DHT22;7672;50.834;6.286;2022-12-18T14:02:17;1.50;99.90
15143;DHT22;7672;50.834;6.286;2022-12-18T14:04:49;1.50;99.90
15143;DHT22;7672;50.834;6.286;2022-12-18T14:07:25;1.50;99.90
15143;DHT22;7672;50.834;6.286;2022-12-18T14:10:00;1.50;99.90
15143;DHT22;7672;50.834;6.286;2022-12-18T14:12:49;1.50;99.90
15143;DHT22;7672;50.834;6.286;2022-12-18T14:17:56;1.50;99.90
15143;DHT22;7672;50.834;6.286;2022-12-18T14:20:31;1.70;99.90
15143;DHT22;7672;50.834;6.286;2022-12-18T14:22:59;1.50;99.90
15143;DHT22;7672;50.834;6.286;2022-12-18T14:25:28;1.50;99.90
15143;DHT22;7672;50.834;6.286;2022-12-18T14:28:14;1.50;99.90
15143;DHT22;7672;50.834;6.286;2022-12-18T14:30:43;1.40;99.90
15143;DHT22;7672;50.834;6.286;2022-12-18T14:33:17;1.40;99.90
15143;DHT22;7672;50.834;6.286;2022-12-18T14:36:01;1.40;99.90
15143;DHT22;7672;50.834;6.286;2022-12-18T14:38:30;1.40;99.90
15143;DHT22;7672;50.834;6.286;2022-12-18T14:41:12;1.30;99.90
15143;DHT22;7672;50.834;6.286;2022-12-18T14:43:42;1.30;99.90
15143;DHT22;7672;50.834;6.286;2022-12-18T14:46:44;1.30;99.90
15143;DHT22;7672;50.834;6.286;2022-12-18T14:51:54;1.30;99.90
15143;DHT22;7672;50.834;6.286;2022-12-18T14:54:24;1.30;99.90
15143;DHT22;7672;50.834;6.286;2022-12-18T14:57:05;1.30;99.90
15143;DHT22;7672;50.834;6.286;2022-12-18T14:59:45;1.30;99.90
15143;DHT22;7672;50.834;6.286;2022-12-18T15:02:26;1.30;99.90
15143;DHT22;7672;50.834;6.286;2022-12-18T15:05:25;1.30;99.90
15143;DHT22;7672;50.834;6.286;2022-12-18T15:07:59;1.30;99.90
15143;DHT22;7672;50.834;6.286;2022-12-18T15:10:29;1.30;99.90
15143;DHT22;7672;50.834;6.286;2022-12-18T15:18:25;1.40;99.90
15143;DHT22;7672;50.834;6.286;2022-12-18T15:21:00;1.40;99.90
15143;DHT22;7672;50.834;6.286;2022-12-18T15:23:46;1.40;99.90
15143;DHT22;7672;50.834;6.286;2022-12-18T15:26:18;1.40;99.90
15143;DHT22;7672;50.834;6.286;2022-12-18T15:28:52;1.40;99.90
15143;DHT22;7672;50.834;6.286;2022-12-18T15:31:35;1.40;99.90
15143;DHT22;7672;50.834;6.286;2022-12-18T15:36:34;1.40;99.90
15143;DHT22;7672;50.834;6.286;2022-12-18T15:39:05;1.40;99.90
15143;DHT22;7672;50.834;6.286;2022-12-18T15:41:34;1.40;99.90
15143;DHT22;7672;50.834;6.286;2022-12-18T15:44:03;1.40;99.90
15143;DHT22;7672;50.834;6.286;2022-12-18T15:46:47;1.30;99.90
15143;DHT22;7672;50.834;6.286;2022-12-18T15:49:14;1.00;99.90
15143;DHT22;7672;50.834;6.286;2022-12-18T15:51:41;1.30;99.90
15143;DHT22;7672;50.834;6.286;2022-12-18T15:54:13;1.30;99.90
15143;DHT22;7672;50.834;6.286;2022-12-18T15:56:42;1.30;99.90
15143;DHT22;7672;50.834;6.286;2022-12-18T15:59:28;1.20;99.90
15143;DHT22;7672;50.834;6.286;2022-12-18T16:01:56;1.20;99.90
15143;DHT22;7672;50.834;6.286;2022-12-18T16:04:23;1.20;99.90
15143;DHT22;7672;50.834;6.286;2022-12-18T16:06:51;1.30;99.90
15143;DHT22;7672;50.834;6.286;2022-12-18T16:09:38;1.30;99.90
15143;DHT22;7672;50.834;6.286;2022-12-18T16:12:06;1.30;99.90
15143;DHT22;7672;50.834;6.286;2022-12-18T16:14:40;1.30;99.90
15143;DHT22;7672;50.834;6.286;2022-12-18T16:17:10;1.30;99.90
15143;DHT22;7672;50.834;6.286;2022-12-18T16:19:38;1.30;99.90
15143;DHT22;7672;50.834;6.286;2022-12-18T16:22:05;1.30;99.90
15143;DHT22;7672;50.834;6.286;2022-12-18T16:24:39;1.30;99.90
15143;DHT22;7672;50.834;6.286;2022-12-18T16:27:05;1.40;99.90
15143;DHT22;7672;50.834;6.286;2022-12-18T16:29:32;1.30;99.90
15143;DHT22;7672;50.834;6.286;2022-12-18T16:32:00;1.40;99.90
15143;DHT22;7672;50.834;6.286;2022-12-18T16:34:33;1.40;99.90
15143;DHT22;7672;50.834;6.286;2022-12-18T16:37:04;1.40;99.90
15143;DHT22;7672;50.834;6.286;2022-12-18T16:39:33;1.40;99.90
15143;DHT22;7672;50.834;6.286;2022-12-18T16:42:16;1.40;99.90
15143;DHT22;7672;50.834;6.286;2022-12-18T16:44:47;1.40;99.90
15143;DHT22;7672;50.834;6.286;2022-12-18T16:47:15;1.40;99.90
15143;DHT22;7672;50.834;6.286;2022-12-18T16:49:43;1.30;99.90
15143;DHT22;7672;50.834;6.286;2022-12-18T16:52:11;1.30;99.90
15143;DHT22;7672;50.834;6.286;2022-12-18T16:54:39;1.30;99.90
15143;DHT22;7672;50.834;6.286;2022-12-18T16:57:06;1.30;99.90
15143;DHT22;7672;50.834;6.286;2022-12-18T16:59:32;1.20;99.90
15143;DHT22;7672;50.834;6.286;2022-12-18T17:01:59;1.20;99.90
15143;DHT22;7672;50.834;6.286;2022-12-18T17:04:27;1.20;99.90
15143;DHT22;7672;50.834;6.286;2022-12-18T17:06:54;1.20;99.90
15143;DHT22;7672;50.834;6.286;2022-12-18T17:09:21;1.20;99.90
15143;DHT22;7672;50.834;6.286;2022-12-18T17:11:52;1.20;99.90
15143;DHT22;7672;50.834;6.286;2022-12-18T17:14:22;1.20;99.90
15143;DHT22;7672;50.834;6.286;2022-12-18T17:16:51;1.20;99.90
15143;DHT22;7672;50.834;6.286;2022-12-18T17:19:39;1.20;99.90
15143;DHT22;7672;50.834;6.286;2022-12-18T17:22:05;1.20;99.90
15143;DHT22;7672;50.834;6.286;2022-12-18T17:24:33;1.20;99.90
15143;DHT22;7672;50.834;6.286;2022-12-18T17:27:02;1.20;99.90
15143;DHT22;7672;50.834;6.286;2022-12-18T17:29:29;1.20;99.90
15143;DHT22;7672;50.834;6.286;2022-12-18T17:31:56;1.20;99.90
15143;DHT22;7672;50.834;6.286;2022-12-18T17:34:26;1.20;99.90
15143;DHT22;7672;50.834;6.286;2022-12-18T17:36:53;1.20;99.90
15143;DHT22;7672;50.834;6.286;2022-12-18T17:39:20;1.20;99.90
15143;DHT22;7672;50.834;6.286;2022-12-18T17:41:48;1.20;99.90
15143;DHT22;7672;50.834;6.286;2022-12-18T17:44:15;1.20;99.90
15143;DHT22;7672;50.834;6.286;2022-12-18T17:46:43;1.30;99.90
15143;DHT22;7672;50.834;6.286;2022-12-18T17:49:11;1.30;99.90
15143;DHT22;7672;50.834;6.286;2022-12-18T17:51:39;1.30;99.90
15143;DHT22;7672;50.834;6.286;2022-12-18T17:54:08;1.40;99.90
15143;DHT22;7672;50.834;6.286;2022-12-18T17:56:38;1.40;99.90
15143;DHT22;7672;50.834;6.286;2022-12-18T17:59:05;1.40;99.90
15143;DHT22;7672;50.834;6.286;2022-12-18T18:01:32;1.40;99.90
15143;DHT22;7672;50.834;6.286;2022-12-18T18:04:04;1.40;99.90
15143;DHT22;7672;50.834;6.286;2022-12-18T18:06:32;1.40;99.90
15143;DHT22;7672;50.834;6.286;2022-12-18T18:09:05;1.40;99.90
15143;DHT22;7672;50.834;6.286;2022-12-18T18:11:45;1.40;99.90
15143;DHT22;7672;50.834;6.286;2022-12-18T18:14:31;1.40;99.90
15143;DHT22;7672;50.834;6.286;2022-12-18T18:16:59;1.40;99.90
15143;DHT22;7672;50.834;6.286;2022-12-18T18:19:30;1.40;99.90
15143;DHT22;7672;50.834;6.286;2022-12-18T18:21:58;1.50;99.90
15143;DHT22;7672;50.834;6.286;2022-12-18T18:24:25;1.50;99.90
15143;DHT22;7672;50.834;6.286;2022-12-18T18:26:55;1.50;99.90
15143;DHT22;7672;50.834;6.286;2022-12-18T18:29:25;1.50;99.90
15143;DHT22;7672;50.834;6.286;2022-12-18T18:31:54;1.50;99.90
15143;DHT22;7672;50.834;6.286;2022-12-18T18:34:24;1.50;99.90
15143;DHT22;7672;50.834;6.286;2022-12-18T18:36:53;1.50;99.90
15143;DHT22;7672;50.834;6.286;2022-12-18T18:39:19;1.60;99.90
15143;DHT22;7672;50.834;6.286;2022-12-18T18:41:47;1.60;99.90
15143;DHT22;7672;50.834;6.286;2022-12-18T18:44:16;1.60;99.90
15143;DHT22;7672;50.834;6.286;2022-12-18T18:46:43;1.70;99.90
15143;DHT22;7672;50.834;6.286;2022-12-18T18:49:11;1.70;99.90
15143;DHT22;7672;50.834;6.286;2022-12-18T18:51:39;1.70;99.90
15143;DHT22;7672;50.834;6.286;2022-12-18T18:54:07;1.80;99.90
15143;DHT22;7672;50.834;6.286;2022-12-18T18:56:35;1.80;99.90
15143;DHT22;7672;50.834;6.286;2022-12-18T18:59:22;1.80;99.90
15143;DHT22;7672;50.834;6.286;2022-12-18T19:01:58;1.90;99.90
15143;DHT22;7672;50.834;6.286;2022-12-18T19:04:29;1.90;99.90
15143;DHT22;7672;50.834;6.286;2022-12-18T19:06:56;1.90;99.90
15143;DHT22;7672;50.834;6.286;2022-12-18T19:09:23;2.00;99.90
15143;DHT22;7672;50.834;6.286;2022-12-18T19:11:51;2.40;99.90
15143;DHT22;7672;50.834;6.286;2022-12-18T19:14:36;2.00;99.90
15143;DHT22;7672;50.834;6.286;2022-12-18T19:17:03;2.10;99.90
15143;DHT22;7672;50.834;6.286;2022-12-18T19:19:30;2.10;99.90
15143;DHT22;7672;50.834;6.286;2022-12-18T19:21:56;2.10;99.90
15143;DHT22;7672;50.834;6.286;2022-12-18T19:24:23;2.20;99.90
15143;DHT22;7672;50.834;6.286;2022-12-18T19:26:50;2.10;99.90
15143;DHT22;7672;50.834;6.286;2022-12-18T19:29:20;2.20;99.90
15143;DHT22;7672;50.834;6.286;2022-12-18T19:31:47;2.20;99.90
15143;DHT22;7672;50.834;6.286;2022-12-18T19:34:13;2.20;99.90
15143;DHT22;7672;50.834;6.286;2022-12-18T19:36:40;2.30;99.90
15143;DHT22;7672;50.834;6.286;2022-12-18T19:39:15;2.30;99.90
15143;DHT22;7672;50.834;6.286;2022-12-18T19:41:43;2.30;99.90
15143;DHT22;7672;50.834;6.286;2022-12-18T19:44:12;2.30;99.90
15143;DHT22;7672;50.834;6.286;2022-12-18T19:46:40;2.20;99.90
15143;DHT22;7672;50.834;6.286;2022-12-18T19:49:12;2.20;99.90
15143;DHT22;7672;50.834;6.286;2022-12-18T19:51:44;2.20;99.90
15143;DHT22;7672;50.834;6.286;2022-12-18T19:54:11;2.20;99.90
15143;DHT22;7672;50.834;6.286;2022-12-18T19:56:43;2.20;99.90
15143;DHT22;7672;50.834;6.286;2022-12-18T19:59:10;2.10;99.90
15143;DHT22;7672;50.834;6.286;2022-12-18T20:01:37;2.10;99.90
15143;DHT22;7672;50.834;6.286;2022-12-18T20:04:05;2.00;99.90
15143;DHT22;7672;50.834;6.286;2022-12-18T20:06:46;2.00;99.90
15143;DHT22;7672;50.834;6.286;2022-12-18T20:09:15;2.00;99.90
15143;DHT22;7672;50.834;6.286;2022-12-18T20:11:44;2.00;99.90
15143;DHT22;7672;50.834;6.286;2022-12-18T20:14:13;2.00;99.90
15143;DHT22;7672;50.834;6.286;2022-12-18T20:16:49;1.90;99.90
15143;DHT22;7672;50.834;6.286;2022-12-18T20:19:18;1.90;99.90
15143;DHT22;7672;50.834;6.286;2022-12-18T20:21:46;1.90;99.90
15143;DHT22;7672;50.834;6.286;2022-12-18T20:24:12;1.90;99.90
15143;DHT22;7672;50.834;6.286;2022-12-18T20:26:39;1.90;99.90
15143;DHT22;7672;50.834;6.286;2022-12-18T20:29:06;1.80;99.90
15143;DHT22;7672;50.834;6.286;2022-12-18T20:31:33;1.90;99.90
15143;DHT22;7672;50.834;6.286;2022-12-18T20:34:00;1.90;99.90
15143;DHT22;7672;50.834;6.286;2022-12-18T20:36:31;1.90;99.90